Time;durP1;ratioP1;P1;durP2;ratioP2;P2;SDS_P1;SDS_P2;PMS_P1;PMS_P2;Temp;Humidity;BMP_temperature;BMP_pressure;BME280_temperature;BME280_humidity;BME280_pressure;Samples;Min_cycle;Max_cycle;Signal;HPM_P1;HPM_P2
2021/07/15 00:01:33;;;;;;;14.88;7.95;;;;;;;25.34;59.86;100790.50;4996957;28;20037;-60
2021/07/15 00:03:58;;;;;;;10.95;7.10;;;;;;;25.39;59.74;100796.13;4996793;28;20018;-60
2021/07/15 00:06:24;;;;;;;10.57;7.00;;;;;;;25.41;59.64;100802.22;4995209;28;20022;-60
2021/07/15 00:08:58;;;;;;;8.57;7.15;;;;;;;25.42;59.51;100798.44;4995306;28;20053;-60
2021/07/15 00:11:26;;;;;;;8.85;6.68;;;;;;;25.42;59.62;100795.69;4997126;28;20031;-60
2021/07/15 00:13:52;;;;;;;9.85;7.30;;;;;;;25.42;59.53;100801.16;4996716;28;20410;-60
2021/07/15 00:16:19;;;;;;;10.20;7.03;;;;;;;25.41;59.64;100799.47;4996346;28;20026;-60
2021/07/15 00:18:46;;;;;;;12.23;6.82;;;;;;;25.43;59.64;100802.84;4995319;28;20022;-60
2021/07/15 00:21:16;;;;;;;9.40;6.68;;;;;;;25.44;60.04;100808.09;4996589;28;20025;-60
2021/07/15 00:23:41;;;;;;;9.70;6.57;;;;;;;25.41;60.00;100800.31;4996465;28;20034;-60
2021/07/15 00:26:08;;;;;;;10.13;6.15;;;;;;;25.43;60.04;100808.34;4996459;28;20121;-60
2021/07/15 00:28:40;;;;;;;10.23;6.93;;;;;;;25.41;59.88;100807.72;4996615;28;20033;-60
2021/07/15 00:31:06;;;;;;;10.75;6.50;;;;;;;25.37;60.24;100801.88;4996232;28;20059;-60
2021/07/15 00:33:32;;;;;;;11.20;6.25;;;;;;;25.34;59.83;100801.47;4996087;28;20076;-61
2021/07/15 00:35:57;;;;;;;11.05;7.03;;;;;;;25.32;59.61;100806.34;4995913;28;20539;-61
2021/07/15 00:38:24;;;;;;;9.13;6.60;;;;;;;25.29;60.00;100802.13;4996137;28;20025;-60
2021/07/15 00:40:49;;;;;;;10.20;7.10;;;;;;;25.29;59.91;100809.53;4995910;28;20019;-59
2021/07/15 00:43:15;;;;;;;10.18;6.53;;;;;;;25.28;60.12;100802.38;4994530;28;20026;-60
2021/07/15 00:45:40;;;;;;;10.23;6.40;;;;;;;25.27;60.34;100809.75;4996041;28;20459;-60
2021/07/15 00:48:06;;;;;;;11.80;7.03;;;;;;;25.28;60.40;100807.84;4995990;28;20471;-60
2021/07/15 00:50:32;;;;;;;7.93;6.57;;;;;;;25.26;60.80;100801.75;4996045;28;20089;-60
2021/07/15 00:52:57;;;;;;;12.65;6.63;;;;;;;25.25;60.25;100806.41;4995882;28;20065;-60
2021/07/15 00:55:36;;;;;;;8.95;6.75;;;;;;;25.22;60.48;100804.09;4994613;28;20101;-64
2021/07/15 00:58:03;;;;;;;8.45;6.28;;;;;;;25.17;60.72;100801.22;4995068;28;20104;-61
2021/07/15 01:00:29;;;;;;;8.88;5.93;;;;;;;25.22;60.51;100806.00;4995439;28;20053;-62
2021/07/15 01:02:56;;;;;;;9.43;5.75;;;;;;;25.20;60.50;100808.13;4995819;28;20045;-61
2021/07/15 01:05:33;;;;;;;8.63;6.43;;;;;;;25.17;60.56;100805.84;4977991;28;20037;-62
2021/07/15 01:08:02;;;;;;;10.27;6.63;;;;;;;25.10;60.83;100802.34;4995351;28;20030;-65
2021/07/15 01:10:30;;;;;;;8.80;5.20;;;;;;;25.11;60.38;100812.22;5026837;28;20049;-61
2021/07/15 01:13:11;;;;;;;11.98;7.53;;;;;;;25.13;60.56;100810.94;5027212;28;20034;-61
2021/07/15 01:15:56;;;;;;;9.25;6.40;;;;;;;25.13;60.70;100812.84;4995174;28;20029;-61
2021/07/15 01:18:37;;;;;;;12.32;6.72;;;;;;;25.13;61.10;100810.94;4995733;28;20030;-60
2021/07/15 01:21:40;;;;;;;10.48;6.32;;;;;;;25.10;60.83;100814.13;4993828;28;20030;-60
2021/07/15 01:24:27;;;;;;;8.20;5.90;;;;;;;25.09;60.51;100822.59;4995052;28;20391;-60
2021/07/15 01:27:13;;;;;;;12.00;6.20;;;;;;;25.11;60.86;100814.97;4995233;28;20468;-60
2021/07/15 01:29:57;;;;;;;13.07;6.22;;;;;;;25.10;60.56;100819.59;4995149;28;20467;-60
2021/07/15 01:32:27;;;;;;;9.00;5.93;;;;;;;25.14;60.54;100814.53;4995227;28;20064;-59
2021/07/15 01:34:55;;;;;;;11.32;6.18;;;;;;;25.15;60.29;100813.47;4995095;28;20074;-60
2021/07/15 01:37:21;;;;;;;7.32;5.95;;;;;;;25.14;60.77;100814.53;4995311;28;20027;-60
2021/07/15 01:39:49;;;;;;;8.05;6.07;;;;;;;25.13;60.60;100818.31;4994063;28;20105;-60
2021/07/15 01:42:17;;;;;;;9.45;5.53;;;;;;;25.11;60.82;100820.44;4994484;28;20030;-60
2021/07/15 01:44:42;;;;;;;9.13;5.88;;;;;;;25.14;60.82;100815.38;4994978;28;20042;-60
2021/07/15 01:47:08;;;;;;;8.13;5.65;;;;;;;25.11;60.85;100810.31;4995229;28;20470;-60
2021/07/15 01:49:33;;;;;;;9.55;6.22;;;;;;;25.14;60.51;100811.78;4993347;28;20030;-60
2021/07/15 01:52:00;;;;;;;7.97;5.70;;;;;;;25.18;60.64;100818.50;4993336;28;20476;-61
2021/07/15 01:54:27;;;;;;;9.40;5.90;;;;;;;25.19;60.59;100822.91;4994745;28;20501;-60
2021/07/15 01:56:53;;;;;;;8.43;5.93;;;;;;;25.17;60.47;100816.81;4994781;28;20396;-60
2021/07/15 01:59:23;;;;;;;8.18;5.25;;;;;;;25.16;60.70;100815.97;4977037;28;20050;-60
2021/07/15 02:01:50;;;;;;;8.48;5.80;;;;;;;25.16;60.66;100823.34;4993596;28;20030;-61
2021/07/15 02:04:16;;;;;;;8.82;5.80;;;;;;;25.16;60.82;100817.88;4993491;28;20026;-61
2021/07/15 02:06:42;;;;;;;7.90;4.75;;;;;;;25.16;60.52;100813.22;4995034;28;20026;-64
2021/07/15 02:09:11;;;;;;;7.55;5.55;;;;;;;25.16;60.63;100818.72;4993517;28;20019;-61
2021/07/15 02:11:40;;;;;;;8.45;5.45;;;;;;;25.17;60.75;100816.81;4994176;28;20160;-61
2021/07/15 02:14:09;;;;;;;6.55;4.95;;;;;;;25.15;60.30;100816.22;4993383;28;20037;-60
2021/07/15 02:16:36;;;;;;;5.75;4.45;;;;;;;25.16;60.61;100824.19;4994216;28;20109;-61
2021/07/15 02:19:03;;;;;;;8.35;3.92;;;;;;;25.14;60.57;100817.25;4993336;28;20037;-60
2021/07/15 02:21:31;;;;;;;4.57;3.25;;;;;;;25.15;60.74;100818.94;4994499;28;20025;-60
2021/07/15 02:23:57;;;;;;;5.20;3.58;;;;;;;25.10;60.60;100818.78;4994485;28;20022;-60
2021/07/15 02:26:24;;;;;;;4.25;2.85;;;;;;;25.09;60.69;100823.44;4993297;28;20033;-60
2021/07/15 02:28:50;;;;;;;3.83;3.10;;;;;;;25.08;60.57;100819.00;4993522;28;20031;-60
2021/07/15 02:31:17;;;;;;;4.47;2.75;;;;;;;25.10;60.75;100816.06;4992903;28;20105;-60
2021/07/15 02:33:47;;;;;;;4.18;2.63;;;;;;;25.05;60.59;100810.38;4994318;28;20030;-60
2021/07/15 02:36:13;;;;;;;3.67;3.28;;;;;;;25.09;60.47;100825.31;4993226;28;20077;-60
2021/07/15 02:38:40;;;;;;;3.45;3.05;;;;;;;25.09;60.84;100823.44;4993047;28;20026;-61
2021/07/15 02:41:06;;;;;;;3.25;1.85;;;;;;;25.11;60.33;100831.41;4992879;28;20026;-60
2021/07/15 02:43:31;;;;;;;2.58;1.90;;;;;;;25.11;60.54;100831.41;4994001;28;20419;-60
2021/07/15 02:45:56;;;;;;;1.80;1.70;;;;;;;25.08;60.65;100832.72;4992848;28;20034;-60
2021/07/15 02:48:23;;;;;;;2.53;1.60;;;;;;;25.06;60.54;100825.78;4994204;28;20037;-60
2021/07/15 02:50:48;;;;;;;2.25;1.25;;;;;;;25.06;60.51;100823.03;4993980;28;20386;-60
2021/07/15 02:53:14;;;;;;;1.40;1.27;;;;;;;25.06;60.36;100823.88;4994770;28;20061;-60
2021/07/15 02:55:42;;;;;;;1.77;1.63;;;;;;;25.06;60.51;100834.00;4994399;28;20061;-60
2021/07/15 02:58:17;;;;;;;2.15;1.50;;;;;;;25.05;60.03;100832.31;4992954;28;20415;-61
2021/07/15 03:00:50;;;;;;;2.10;1.08;;;;;;;25.03;59.99;100829.81;4992431;28;20050;-60
2021/07/15 03:03:46;;;;;;;1.40;1.10;;;;;;;24.99;60.30;100828.56;4994132;28;20087;-61
2021/07/15 03:06:24;;;;;;;1.60;1.17;;;;;;;24.97;60.19;100829.84;4997526;28;20101;-60
2021/07/15 03:08:56;;;;;;;2.92;0.95;;;;;;;24.94;60.05;100835.78;4998196;28;20026;-61
2021/07/15 03:11:22;;;;;;;3.97;1.27;;;;;;;24.86;60.39;100829.50;4998213;28;20030;-61
2021/07/15 03:13:48;;;;;;;1.63;1.30;;;;;;;24.89;60.12;100830.97;4996897;28;20031;-60
2021/07/15 03:16:15;;;;;;;1.75;1.20;;;;;;;24.88;60.73;100838.34;4996503;28;20034;-60
2021/07/15 03:18:40;;;;;;;2.38;1.15;;;;;;;24.88;60.15;100838.34;4996356;28;20033;-61
2021/07/15 03:21:06;;;;;;;1.45;1.20;;;;;;;24.88;60.19;100832.88;4996145;28;20407;-61
2021/07/15 03:23:32;;;;;;;3.33;1.50;;;;;;;24.88;60.21;100830.13;4996352;28;20022;-61
2021/07/15 03:25:58;;;;;;;2.78;1.30;;;;;;;24.85;60.53;100829.72;4996367;28;20023;-61
2021/07/15 03:28:29;;;;;;;3.17;1.50;;;;;;;24.83;60.48;100826.38;4997458;28;20033;-61
2021/07/15 03:30:57;;;;;;;1.70;1.20;;;;;;;24.86;60.30;100837.75;4996439;28;20027;-62
2021/07/15 03:33:23;;;;;;;1.25;1.02;;;;;;;24.82;60.19;100839.22;4996354;28;20030;-61
2021/07/15 03:35:49;;;;;;;1.40;1.30;;;;;;;24.78;60.47;100846.19;4995899;28;20498;-61
2021/07/15 03:38:15;;;;;;;3.30;2.38;;;;;;;24.78;60.62;100843.47;4995847;28;20081;-61
2021/07/15 03:40:41;;;;;;;1.77;1.10;;;;;;;24.81;60.02;100844.94;4995761;28;20026;-61
2021/07/15 03:43:08;;;;;;;1.25;1.15;;;;;;;24.77;60.54;100847.25;4995982;28;20041;-60
2021/07/15 03:45:34;;;;;;;1.17;0.95;;;;;;;24.73;60.61;100846.03;4997131;28;20387;-60
2021/07/15 03:48:00;;;;;;;1.10;1.00;;;;;;;24.77;60.57;100858.22;4997694;28;20037;-61
2021/07/15 03:50:27;;;;;;;3.15;1.23;;;;;;;24.77;60.62;100847.25;4995943;28;20025;-60
2021/07/15 03:52:55;;;;;;;1.20;1.10;;;;;;;24.79;60.29;100853.38;4996792;28;20471;-60
2021/07/15 03:55:22;;;;;;;2.80;1.13;;;;;;;24.80;60.12;100857.81;4995764;28;20046;-60
2021/07/15 03:57:48;;;;;;;2.67;2.10;;;;;;;24.80;60.31;100863.28;4995440;28;20030;-61
2021/07/15 04:00:14;;;;;;;4.13;1.45;;;;;;;24.81;60.93;100864.13;4995156;28;20054;-60
2021/07/15 04:02:40;;;;;;;2.03;1.83;;;;;;;24.82;60.00;100861.16;4995358;28;20048;-60
2021/07/15 04:05:07;;;;;;;2.15;1.65;;;;;;;24.80;61.04;100870.66;4995619;28;20022;-60
2021/07/15 04:07:33;;;;;;;2.17;1.67;;;;;;;24.81;60.51;100864.97;4995571;28;20030;-60
2021/07/15 04:09:58;;;;;;;1.80;1.70;;;;;;;24.84;60.38;100874.66;4996659;28;20459;-60
2021/07/15 04:12:25;;;;;;;5.07;1.50;;;;;;;24.85;60.69;100871.69;4996926;28;20030;-59
2021/07/15 04:15:09;;;;;;;1.70;1.52;;;;;;;24.87;60.29;100877.75;4995307;28;20073;-60
2021/07/15 04:17:45;;;;;;;1.42;1.33;;;;;;;24.89;60.20;100870.19;4996303;28;20030;-60
2021/07/15 04:20:11;;;;;;;2.25;2.05;;;;;;;24.90;60.20;100874.59;4995375;28;20367;-60
2021/07/15 04:22:38;;;;;;;1.85;1.50;;;;;;;24.93;60.04;100876.03;4995342;28;20058;-60
2021/07/15 04:25:06;;;;;;;3.13;2.05;;;;;;;24.93;60.24;100877.97;4996427;28;20478;-61
2021/07/15 04:27:32;;;;;;;2.53;2.00;;;;;;;24.97;60.08;100876.44;4996163;28;20098;-60
2021/07/15 04:30:04;;;;;;;1.98;1.77;;;;;;;24.98;60.14;100886.38;4996035;28;20027;-60
2021/07/15 04:32:35;;;;;;;2.97;2.05;;;;;;;24.98;59.88;100895.44;4995029;28;20029;-60
2021/07/15 04:35:01;;;;;;;2.00;1.67;;;;;;;25.00;60.13;100900.69;4996525;28;20050;-60
2021/07/15 04:37:27;;;;;;;2.28;1.80;;;;;;;25.01;60.03;100902.38;4995047;28;20065;-61
2021/07/15 04:39:53;;;;;;;3.30;2.35;;;;;;;25.03;60.21;100908.47;4996195;28;20026;-60
2021/07/15 04:42:19;;;;;;;2.50;2.22;;;;;;;25.03;59.89;100911.19;4996363;28;20026;-61
2021/07/15 04:44:45;;;;;;;4.38;3.30;;;;;;;25.04;60.36;100915.63;4995755;28;20042;-60
2021/07/15 04:47:12;;;;;;;4.88;2.83;;;;;;;25.04;60.11;100912.91;4996586;28;20065;-60
2021/07/15 04:49:38;;;;;;;4.00;2.97;;;;;;;25.04;60.15;100921.13;4994451;28;20101;-60
2021/07/15 04:52:04;;;;;;;4.38;2.97;;;;;;;25.05;60.58;100923.63;4995949;28;20052;-60
2021/07/15 04:54:30;;;;;;;5.30;3.97;;;;;;;25.07;60.37;100920.69;4994544;28;20437;-60
2021/07/15 04:56:55;;;;;;;4.05;3.20;;;;;;;25.04;60.08;100923.84;4994695;28;20101;-60
2021/07/15 04:59:22;;;;;;;5.75;3.90;;;;;;;25.02;60.01;100920.47;4994357;28;20065;-60
2021/07/15 05:01:47;;;;;;;9.57;4.50;;;;;;;25.02;60.41;100910.34;4994544;28;20018;-60
2021/07/15 05:04:13;;;;;;;7.63;4.07;;;;;;;25.04;60.15;100912.91;4994220;28;20023;-60
2021/07/15 05:06:38;;;;;;;7.63;4.65;;;;;;;25.03;60.19;100906.56;4994717;28;20030;-60
2021/07/15 05:09:04;;;;;;;7.35;4.65;;;;;;;25.03;60.11;100911.19;4995976;28;20328;-60
2021/07/15 05:11:34;;;;;;;7.03;5.28;;;;;;;25.02;60.25;100907.63;4995817;28;20026;-60
2021/07/15 05:14:02;;;;;;;7.65;4.88;;;;;;;25.04;60.72;100911.00;4995541;28;20416;-60
2021/07/15 05:16:28;;;;;;;7.25;4.32;;;;;;;25.08;59.92;100925.09;4995535;28;20030;-60
2021/07/15 05:18:53;;;;;;;6.10;4.07;;;;;;;25.11;60.08;100913.66;4995384;28;20022;-60
2021/07/15 05:21:19;;;;;;;5.72;3.97;;;;;;;25.09;60.19;100907.56;4995364;28;20409;-60
2021/07/15 05:23:44;;;;;;;6.68;4.43;;;;;;;25.15;60.09;100912.19;4995388;28;20027;-60
2021/07/15 05:26:10;;;;;;;7.07;4.78;;;;;;;25.18;59.48;100903.50;4994518;28;20064;-60
2021/07/15 05:28:35;;;;;;;6.22;4.93;;;;;;;25.21;60.16;100897.59;4993685;28;20022;-61
2021/07/15 05:31:00;;;;;;;6.22;4.72;;;;;;;25.24;59.82;100908.06;4995123;28;20150;-60
2021/07/15 05:33:26;;;;;;;7.95;3.97;;;;;;;25.25;59.71;100904.28;4995180;28;20030;-60
2021/07/15 05:35:51;;;;;;;8.48;4.03;;;;;;;25.27;60.15;100902.16;4995094;28;20037;-59
2021/07/15 05:38:17;;;;;;;7.05;4.65;;;;;;;25.31;59.65;100903.41;4993681;28;20099;-60
2021/07/15 05:40:42;;;;;;;5.60;4.55;;;;;;;25.36;59.52;100898.06;4995030;28;20034;-60
2021/07/15 05:43:07;;;;;;;4.82;3.38;;;;;;;25.36;59.35;100907.16;4994909;28;20065;-60
2021/07/15 05:45:33;;;;;;;5.38;4.13;;;;;;;25.37;59.43;100910.72;4994631;28;20064;-60
2021/07/15 05:47:58;;;;;;;5.78;3.33;;;;;;;25.38;59.82;100910.50;4995062;28;20105;-60
2021/07/15 05:50:23;;;;;;;4.63;3.28;;;;;;;25.37;59.58;100906.09;4994790;28;20106;-60
2021/07/15 05:52:49;;;;;;;6.70;3.15;;;;;;;25.40;59.33;100921.25;4994668;28;20071;-60
2021/07/15 05:55:14;;;;;;;4.15;2.78;;;;;;;25.42;59.34;100921.88;4994736;28;20030;-60
2021/07/15 05:57:40;;;;;;;6.18;2.58;;;;;;;25.41;59.93;100926.50;4994619;28;20448;-60
2021/07/15 06:00:08;;;;;;;3.85;2.67;;;;;;;25.42;59.89;100925.47;4994354;28;20053;-60
2021/07/15 06:02:33;;;;;;;4.20;3.10;;;;;;;25.45;59.19;100935.16;4994695;28;20026;-60
2021/07/15 06:04:59;;;;;;;4.20;2.63;;;;;;;25.44;59.75;100927.97;4994438;28;20493;-61
2021/07/15 06:07:24;;;;;;;6.28;2.80;;;;;;;25.45;59.42;100937.88;4994857;28;20037;-60
2021/07/15 06:09:49;;;;;;;4.25;2.75;;;;;;;25.41;59.57;100937.47;4993407;28;20034;-60
2021/07/15 06:12:15;;;;;;;3.10;2.17;;;;;;;25.44;59.53;100947.16;4993425;28;20459;-60
2021/07/15 06:14:40;;;;;;;3.83;2.35;;;;;;;25.42;59.15;100943.81;4994645;28;20375;-61
2021/07/15 06:17:05;;;;;;;4.55;2.28;;;;;;;25.41;59.34;100953.94;4994734;28;20520;-61
2021/07/15 06:19:31;;;;;;;3.58;2.15;;;;;;;25.42;59.10;100954.78;4994477;28;20034;-60
2021/07/15 06:21:56;;;;;;;2.88;2.10;;;;;;;25.43;58.93;100961.97;4994149;28;20031;-60
2021/07/15 06:24:22;;;;;;;5.75;2.33;;;;;;;25.38;59.19;100959.03;4994479;28;20022;-62
2021/07/15 06:26:48;;;;;;;3.35;2.00;;;;;;;25.31;59.61;100947.28;4994094;28;20037;-64
2021/07/15 06:29:14;;;;;;;2.97;2.20;;;;;;;25.23;59.75;100944.81;4994945;28;20026;-62
2021/07/15 06:31:39;;;;;;;3.33;2.20;;;;;;;25.19;59.51;100954.53;4994026;28;20101;-61
2021/07/15 06:34:05;;;;;;;2.35;1.83;;;;;;;25.13;60.29;100936.22;4994605;28;20109;-63
2021/07/15 06:36:32;;;;;;;3.38;2.13;;;;;;;25.14;60.08;100959.84;4994325;28;20022;-61
2021/07/15 06:38:58;;;;;;;4.53;2.00;;;;;;;25.13;60.09;100959.00;4995851;28;20088;-61
2021/07/15 06:41:23;;;;;;;3.33;1.77;;;;;;;25.15;59.67;100975.25;4998472;28;20418;-61
2021/07/15 06:43:48;;;;;;;4.35;2.20;;;;;;;25.19;59.96;100970.97;4997986;28;20080;-61
2021/07/15 06:46:14;;;;;;;4.53;1.83;;;;;;;25.22;59.62;100976.03;4997917;28;20114;-61
2021/07/15 06:48:39;;;;;;;5.53;2.15;;;;;;;25.23;59.76;100974.97;4997939;28;20030;-61
2021/07/15 06:51:05;;;;;;;2.65;1.73;;;;;;;25.23;59.92;100969.50;4997919;28;20029;-61
2021/07/15 06:53:30;;;;;;;2.72;1.63;;;;;;;25.24;59.94;100972.00;4998034;28;20034;-61
2021/07/15 06:55:55;;;;;;;3.50;1.75;;;;;;;25.25;59.93;100975.59;4997711;28;20018;-61
2021/07/15 06:58:21;;;;;;;2.10;1.83;;;;;;;25.30;59.55;100987.56;4997732;28;20101;-60
2021/07/15 07:00:49;;;;;;;4.95;1.98;;;;;;;25.31;59.67;100989.28;4996284;28;20042;-61
2021/07/15 07:03:14;;;;;;;4.55;1.70;;;;;;;25.35;59.58;101000.63;4992711;28;20022;-60
2021/07/15 07:05:40;;;;;;;3.72;1.58;;;;;;;25.39;59.50;100997.22;4987668;28;20504;-60
2021/07/15 07:08:06;;;;;;;2.28;1.58;;;;;;;25.45;59.89;100995.50;4998262;28;20097;-61
2021/07/15 07:10:32;;;;;;;1.95;1.48;;;;;;;25.51;59.48;100991.06;4997520;28;20057;-60
2021/07/15 07:12:57;;;;;;;2.92;1.70;;;;;;;25.57;59.62;100993.75;4997967;28;20399;-60
2021/07/15 07:15:23;;;;;;;4.35;1.30;;;;;;;25.60;59.43;100990.53;4997963;28;20034;-61
2021/07/15 07:17:48;;;;;;;3.10;1.70;;;;;;;25.61;59.74;100994.97;4997678;28;20101;-60
2021/07/15 07:20:15;;;;;;;4.20;2.08;;;;;;;25.64;59.52;101000.03;4997591;28;20038;-60
2021/07/15 07:22:41;;;;;;;2.65;1.73;;;;;;;25.68;59.53;101003.16;4997225;28;20097;-60
2021/07/15 07:25:08;;;;;;;3.38;1.50;;;;;;;25.71;59.32;101008.22;4995892;28;20022;-60
2021/07/15 07:27:35;;;;;;;4.00;1.58;;;;;;;25.78;59.27;101015.31;4995907;28;20109;-61
2021/07/15 07:30:00;;;;;;;1.88;1.60;;;;;;;25.78;59.48;101018.06;4997638;28;20046;-60
2021/07/15 07:32:26;;;;;;;2.63;1.55;;;;;;;25.80;59.29;101017.81;4997362;28;20145;-61
2021/07/15 07:34:51;;;;;;;4.68;1.80;;;;;;;25.79;59.37;101013.41;4997637;28;20049;-60
2021/07/15 07:37:17;;;;;;;1.77;1.52;;;;;;;25.83;59.49;101007.25;4997149;28;20387;-60
2021/07/15 07:39:42;;;;;;;2.30;1.50;;;;;;;25.83;58.80;101018.22;4997251;28;20037;-60
2021/07/15 07:42:08;;;;;;;1.70;1.58;;;;;;;25.87;58.98;101022.22;4997331;28;20124;-60
2021/07/15 07:44:33;;;;;;;2.38;1.70;;;;;;;25.87;59.43;101018.63;4997174;28;20033;-60
2021/07/15 07:46:59;;;;;;;3.17;1.70;;;;;;;25.90;59.23;101024.50;4996030;28;20534;-61
2021/07/15 07:49:24;;;;;;;2.78;1.90;;;;;;;25.93;58.89;101026.81;4979391;28;20023;-60
2021/07/15 07:51:49;;;;;;;3.63;1.90;;;;;;;25.97;58.72;101033.50;4995922;28;20034;-59
2021/07/15 07:54:15;;;;;;;3.42;2.00;;;;;;;26.00;58.80;101024.84;4997278;28;20030;-60
2021/07/15 07:56:40;;;;;;;1.70;1.60;;;;;;;26.06;58.64;101034.06;4996986;28;20026;-60
2021/07/15 07:59:06;;;;;;;3.35;2.17;;;;;;;26.10;59.14;101028.97;4996663;28;20434;-60
2021/07/15 08:01:33;;;;;;;2.58;2.00;;;;;;;26.11;58.77;101033.38;4996901;28;20423;-60
2021/07/15 08:03:58;;;;;;;6.22;2.88;;;;;;;26.14;58.41;101041.22;4997073;28;20065;-60
2021/07/15 08:06:24;;;;;;;3.13;2.33;;;;;;;26.16;58.50;101041.84;4997201;28;20364;-60
2021/07/15 08:08:51;;;;;;;2.75;2.20;;;;;;;26.18;58.59;101028.72;4996891;28;20030;-60
2021/07/15 08:11:16;;;;;;;2.00;1.60;;;;;;;26.19;58.63;101033.13;4996403;28;20022;-60
2021/07/15 08:13:42;;;;;;;3.15;2.00;;;;;;;26.23;58.07;101039.88;4996604;28;20045;-60
2021/07/15 08:16:07;;;;;;;4.47;1.95;;;;;;;26.25;58.74;101037.72;4996826;28;20034;-60
2021/07/15 08:18:33;;;;;;;2.83;1.80;;;;;;;26.25;58.64;101026.72;4995064;28;20030;-60
2021/07/15 08:20:59;;;;;;;3.33;2.17;;;;;;;26.28;58.27;101038.13;4996481;28;20105;-60
2021/07/15 08:23:24;;;;;;;4.90;2.55;;;;;;;26.34;58.62;101037.22;4996197;28;20101;-59
2021/07/15 08:25:49;;;;;;;2.55;1.95;;;;;;;26.38;58.57;101037.59;4996334;28;20037;-60
2021/07/15 08:28:15;;;;;;;2.33;1.88;;;;;;;26.44;58.10;101042.16;4996048;28;20030;-60
2021/07/15 08:30:40;;;;;;;2.92;2.28;;;;;;;26.42;57.88;101044.31;4996365;28;20117;-60
2021/07/15 08:33:06;;;;;;;2.70;1.95;;;;;;;26.45;58.00;101050.19;4995962;28;20434;-59
2021/07/15 08:35:32;;;;;;;3.00;2.22;;;;;;;26.42;57.91;101055.28;4996421;28;20030;-60
2021/07/15 08:37:59;;;;;;;3.42;2.25;;;;;;;26.43;58.04;101062.50;4996180;28;20061;-60
2021/07/15 08:40:25;;;;;;;3.53;2.33;;;;;;;26.39;57.87;101056.59;4996101;28;20041;-60
2021/07/15 08:42:51;;;;;;;3.83;2.72;;;;;;;26.38;57.82;101060.41;4996313;28;20030;-60
2021/07/15 08:45:16;;;;;;;2.88;2.20;;;;;;;26.42;58.17;101055.28;4996640;28;20026;-60
2021/07/15 08:47:43;;;;;;;2.53;2.28;;;;;;;26.46;57.73;101064.78;4994876;28;20605;-60
2021/07/15 08:50:09;;;;;;;6.00;2.90;;;;;;;26.47;57.86;101063.69;4995890;28;20050;-60
2021/07/15 08:52:35;;;;;;;4.25;3.03;;;;;;;26.48;57.98;101060.75;4995885;28;20057;-60
2021/07/15 08:55:20;;;;;;;3.50;2.45;;;;;;;26.49;57.52;101061.59;4995821;28;20452;-60
2021/07/15 08:57:46;;;;;;;3.90;2.67;;;;;;;26.49;57.93;101061.59;4995447;28;20475;-60
2021/07/15 09:00:14;;;;;;;4.43;3.30;;;;;;;26.49;58.06;101061.59;4995498;28;20046;-60
2021/07/15 09:02:39;;;;;;;4.35;2.80;;;;;;;26.50;58.01;101069.59;4994500;28;20113;-60
2021/07/15 09:05:09;;;;;;;5.75;2.80;;;;;;;26.53;58.10;101073.78;4995943;28;20049;-60
2021/07/15 09:07:38;;;;;;;5.10;2.80;;;;;;;26.57;57.60;101075.88;4995684;28;20027;-60
2021/07/15 09:10:03;;;;;;;7.60;3.15;;;;;;;26.55;58.16;101077.97;4995206;28;20026;-61
2021/07/15 09:12:29;;;;;;;5.28;3.08;;;;;;;26.57;58.11;101080.53;4994028;28;20037;-60
2021/07/15 09:14:55;;;;;;;5.15;3.25;;;;;;;26.56;57.81;101082.41;4995515;28;20026;-60
2021/07/15 09:17:32;;;;;;;4.32;2.97;;;;;;;26.53;57.50;101090.28;4994319;28;20029;-60
2021/07/15 09:19:58;;;;;;;4.57;3.28;;;;;;;26.46;57.82;101089.50;4995631;28;20483;-60
2021/07/15 09:22:24;;;;;;;8.13;3.67;;;;;;;26.45;57.71;101094.16;4995344;28;20026;-60
2021/07/15 09:24:51;;;;;;;5.47;2.80;;;;;;;26.45;57.55;101094.16;4995329;28;20082;-60
2021/07/15 09:27:21;;;;;;;2.35;1.98;;;;;;;26.42;58.04;101100.09;4994967;28;20076;-59
2021/07/15 09:30:10;;;;;;;2.90;2.10;;;;;;;26.37;58.08;101104.59;4995521;28;20400;-59
2021/07/15 09:32:51;;;;;;;2.55;2.13;;;;;;;26.34;57.40;101111.41;4993800;28;20045;-60
2021/07/15 09:35:26;;;;;;;4.40;2.13;;;;;;;26.29;57.70;101110.38;4995345;28;20028;-60
2021/07/15 09:37:53;;;;;;;3.08;2.35;;;;;;;26.31;57.94;101114.59;4995004;28;20026;-60
2021/07/15 09:40:36;;;;;;;3.47;2.70;;;;;;;26.28;58.09;101104.03;4993870;28;20459;-60
2021/07/15 09:43:22;;;;;;;3.10;2.45;;;;;;;26.38;57.84;101120.03;4995042;28;20029;-60
2021/07/15 09:45:50;;;;;;;2.88;2.30;;;;;;;26.46;57.36;101119.75;4993483;28;20514;-60
2021/07/15 09:48:24;;;;;;;3.70;2.28;;;;;;;26.52;57.48;101127.09;4994882;28;20061;-60
2021/07/15 09:50:52;;;;;;;4.05;2.92;;;;;;;26.57;57.48;101113.50;4993656;28;20038;-60
2021/07/15 09:53:18;;;;;;;4.57;3.20;;;;;;;26.60;57.49;101118.53;4994586;28;20023;-60
2021/07/15 09:55:45;;;;;;;5.30;3.10;;;;;;;26.63;58.10;101120.84;4993136;28;20036;-60
2021/07/15 09:58:12;;;;;;;4.90;3.63;;;;;;;26.63;57.92;101120.84;4994437;28;20076;-59
2021/07/15 10:00:39;;;;;;;6.03;3.63;;;;;;;26.64;58.23;101117.00;4994227;28;20100;-60
2021/07/15 10:03:05;;;;;;;5.00;3.80;;;;;;;26.65;57.78;101126.09;4994973;28;20030;-60
2021/07/15 10:05:31;;;;;;;7.88;4.15;;;;;;;26.62;57.28;101130.16;4994728;28;20080;-60
2021/07/15 10:08:10;;;;;;;6.38;3.85;;;;;;;26.58;56.90;101137.16;4994630;28;20113;-61
2021/07/15 10:10:37;;;;;;;6.72;4.47;;;;;;;26.53;57.75;101134.25;4994847;28;20022;-59
2021/07/15 10:13:19;;;;;;;7.25;4.32;;;;;;;26.50;57.49;101135.53;4994263;28;20053;-60
2021/07/15 10:15:46;;;;;;;5.93;4.28;;;;;;;26.50;57.41;101142.94;4994254;28;20022;-60
2021/07/15 10:18:12;;;;;;;7.18;4.05;;;;;;;26.45;57.44;101140.03;4994253;28;20088;-60
2021/07/15 10:20:37;;;;;;;7.68;4.63;;;;;;;26.42;56.81;101137.72;4994471;28;20110;-60
2021/07/15 10:23:03;;;;;;;7.75;5.40;;;;;;;26.36;57.06;101138.63;4994452;28;20026;-60
2021/07/15 10:25:29;;;;;;;10.45;4.50;;;;;;;26.34;57.13;101147.09;4993019;28;20034;-60
2021/07/15 10:27:55;;;;;;;8.07;5.07;;;;;;;26.31;57.26;101147.56;4994104;28;20531;-61
2021/07/15 10:30:21;;;;;;;7.20;4.80;;;;;;;26.29;57.30;101149.69;4994620;28;20030;-60
2021/07/15 10:32:47;;;;;;;11.48;5.00;;;;;;;26.30;57.57;101151.34;4994390;28;20054;-61
2021/07/15 10:35:12;;;;;;;10.50;5.47;;;;;;;26.25;58.08;101153.09;4993207;28;20054;-60
2021/07/15 10:37:45;;;;;;;9.23;4.50;;;;;;;26.25;57.05;101147.59;4994257;28;20030;-60
2021/07/15 10:40:15;;;;;;;9.07;5.85;;;;;;;26.26;57.68;101154.78;4992752;28;20025;-60
2021/07/15 10:42:41;;;;;;;10.80;5.18;;;;;;;26.20;57.60;101150.19;4994279;28;20041;-61
2021/07/15 10:45:08;;;;;;;7.43;4.35;;;;;;;26.16;57.24;101148.97;4993998;28;20022;-60
2021/07/15 10:47:36;;;;;;;9.80;4.70;;;;;;;26.16;57.29;101149.78;4993935;28;20041;-60
2021/07/15 10:50:01;;;;;;;11.85;5.97;;;;;;;26.12;57.39;101147.69;4994182;28;20034;-61
2021/07/15 10:52:27;;;;;;;7.22;4.88;;;;;;;26.12;57.73;101158.66;4994284;28;20029;-60
2021/07/15 10:54:54;;;;;;;6.93;4.55;;;;;;;26.09;57.55;101159.09;4993036;28;20044;-60
2021/07/15 10:57:23;;;;;;;8.63;5.35;;;;;;;26.10;58.06;101166.28;4994088;28;20034;-60
2021/07/15 10:59:49;;;;;;;9.07;4.85;;;;;;;26.09;57.86;101164.59;4992593;28;20062;-61
2021/07/15 11:02:23;;;;;;;4.97;4.45;;;;;;;26.06;57.32;101160.41;4993865;28;20034;-61
2021/07/15 11:04:50;;;;;;;5.88;3.95;;;;;;;26.11;57.74;101166.06;4993193;28;20037;-61
2021/07/15 11:07:22;;;;;;;9.30;5.00;;;;;;;26.15;57.32;101169.25;4993249;28;20109;-61
2021/07/15 11:09:49;;;;;;;13.15;5.32;;;;;;;26.18;57.09;101168.81;4993123;28;20367;-60
2021/07/15 11:12:37;;;;;;;8.05;5.25;;;;;;;26.24;57.08;101159.66;4994009;28;20030;-60
2021/07/15 11:15:07;;;;;;;9.25;5.40;;;;;;;26.33;57.18;101166.53;4993735;28;20022;-60
2021/07/15 11:17:34;;;;;;;12.02;4.93;;;;;;;26.36;56.86;101171.59;4994003;28;20026;-61
2021/07/15 11:20:07;;;;;;;10.18;5.60;;;;;;;26.44;56.68;101169.41;4993120;28;20034;-61
2021/07/15 11:22:45;;;;;;;11.90;5.63;;;;;;;26.53;56.79;101178.22;4994545;28;20411;-60
2021/07/15 11:25:14;;;;;;;6.60;5.13;;;;;;;26.62;56.68;101168.63;4994114;28;20471;-61
2021/07/15 11:27:42;;;;;;;9.52;5.22;;;;;;;26.72;56.61;101171.69;4997562;28;20026;-61